createdAt,value
2023-09-06T00:04:56.772Z,2.15
2023-09-06T00:09:58.531Z,1.75
2023-09-06T00:15:00.108Z,2.08
2023-09-06T00:20:01.785Z,1.98
2023-09-06T00:25:03.677Z,1.88
2023-09-06T00:30:05.991Z,2.10
2023-09-06T00:35:08.104Z,2.67
2023-09-06T00:40:19.937Z,2.67
2023-09-06T00:45:27.458Z,2.85
2023-09-06T00:50:29.510Z,2.20
2023-09-06T00:55:31.196Z,2.08
2023-09-06T01:00:34.301Z,2.42
2023-09-06T01:05:57.412Z,2.13
2023-09-06T01:11:22.563Z,1.95
2023-09-06T01:16:30.295Z,1.83
2023-09-06T01:22:04.450Z,2.00
2023-09-06T01:27:06.831Z,2.38
2023-09-06T01:32:08.488Z,1.85
2023-09-06T01:37:10.167Z,2.00
2023-09-06T01:42:11.756Z,2.60
2023-09-06T01:47:13.371Z,2.47
2023-09-06T01:52:15.195Z,1.88
2023-09-06T01:57:17.055Z,2.08
2023-09-06T02:02:18.705Z,1.70
2023-09-06T02:07:20.225Z,1.20
2023-09-06T02:12:21.824Z,2.20
2023-09-06T02:17:26.646Z,1.90
2023-09-06T02:22:28.510Z,1.90
2023-09-06T02:27:30.060Z,1.90
2023-09-06T02:32:33.213Z,1.83
2023-09-06T02:37:36.141Z,1.48
2023-09-06T02:42:37.743Z,1.88
2023-09-06T02:47:49.221Z,1.88
2023-09-06T02:52:53.903Z,1.20
2023-09-06T02:57:56.339Z,1.83
2023-09-06T03:03:06.717Z,2.13
2023-09-06T03:08:10.022Z,1.90
2023-09-06T03:13:11.760Z,2.08
2023-09-06T03:18:13.434Z,1.77
2023-09-06T03:23:19.443Z,1.73
2023-09-06T03:28:23.016Z,1.73
2023-09-06T03:33:24.650Z,1.63
2023-09-06T03:38:30.074Z,1.30
2023-09-06T03:43:33.436Z,2.05
2023-09-06T03:48:36.065Z,1.70
2023-09-06T03:53:39.353Z,2.00
2023-09-06T03:58:42.875Z,1.80
2023-09-06T04:03:44.488Z,1.15
2023-09-06T04:08:47.117Z,2.08
2023-09-06T04:13:48.915Z,1.83
2023-09-06T04:18:50.551Z,1.90
2023-09-06T04:23:52.322Z,1.80
2023-09-06T04:28:53.885Z,2.00
2023-09-06T04:33:55.422Z,2.33
2023-09-06T04:38:57.955Z,2.83
2023-09-06T04:43:59.509Z,2.72
2023-09-06T04:49:01.681Z,2.10
2023-09-06T04:54:03.947Z,1.95
2023-09-06T04:59:05.512Z,2.50
2023-09-06T05:04:07.381Z,3.10
2023-09-06T05:09:09.666Z,3.65
2023-09-06T05:14:11.875Z,2.78
2023-09-06T05:19:13.692Z,1.98
2023-09-06T05:24:15.583Z,1.63
2023-09-06T05:29:23.104Z,1.77
2023-09-06T05:34:25.437Z,2.03
2023-09-06T05:39:27.098Z,1.92
2023-09-06T05:44:28.758Z,2.50
2023-09-06T05:49:30.606Z,2.13
2023-09-06T05:54:32.656Z,2.83
2023-09-06T05:59:34.288Z,3.42
2023-09-06T06:04:36.033Z,3.97
2023-09-06T06:09:37.595Z,4.45
2023-09-06T06:14:39.145Z,4.88
2023-09-06T06:19:40.828Z,5.85
2023-09-06T06:24:46.833Z,5.85
2023-09-06T06:34:52.241Z,4.90
2023-09-06T06:39:54.004Z,4.28
2023-09-06T06:44:55.715Z,4.13
2023-09-06T06:49:58.822Z,3.40
2023-09-06T06:55:00.499Z,4.30
2023-09-06T07:00:06.977Z,3.50
2023-09-06T07:05:09.150Z,3.47
2023-09-06T07:10:11.267Z,3.60
2023-09-06T07:15:14.069Z,3.38
2023-09-06T07:20:15.842Z,3.95
2023-09-06T07:25:17.655Z,3.70
2023-09-06T07:30:19.145Z,3.47
2023-09-06T07:35:20.849Z,3.90
2023-09-06T07:40:22.467Z,3.83
2023-09-06T07:45:24.011Z,3.78
2023-09-06T07:50:25.671Z,3.65
2023-09-06T07:55:28.954Z,3.35
2023-09-06T08:00:32.251Z,3.05
2023-09-06T08:05:34.284Z,3.22
2023-09-06T08:10:39.318Z,2.95
2023-09-06T08:15:40.891Z,3.15
2023-09-06T08:20:42.534Z,2.78
2023-09-06T08:25:44.160Z,2.35
2023-09-06T08:30:48.288Z,3.17
2023-09-06T08:35:50.419Z,2.65
2023-09-06T08:40:52.212Z,2.42
2023-09-06T08:45:54.294Z,2.55
2023-09-06T08:50:57.839Z,2.28
2023-09-06T08:56:00.291Z,2.08
2023-09-06T09:01:05.052Z,2.90
2023-09-06T09:06:10.258Z,2.08
2023-09-06T09:11:22.585Z,2.13
2023-09-06T09:16:25.315Z,2.17
2023-09-06T09:21:29.853Z,2.03
2023-09-06T09:26:34.119Z,1.73
2023-09-06T09:36:39.038Z,1.77
2023-09-06T09:41:57.496Z,2.03
2023-09-06T09:47:38.307Z,1.98
2023-09-06T09:52:36.168Z,1.67
2023-09-06T09:57:38.417Z,1.77
2023-09-06T10:02:42.052Z,1.90
2023-09-06T10:07:49.511Z,2.33
2023-09-06T10:12:53.514Z,1.75
2023-09-06T10:17:58.028Z,2.15
2023-09-06T10:23:01.157Z,1.75
2023-09-06T10:28:02.990Z,2.30
2023-09-06T10:33:05.031Z,2.70
2023-09-06T10:38:12.777Z,2.10
2023-09-06T10:43:15.222Z,2.17
2023-09-06T10:48:16.886Z,2.30
2023-09-06T10:53:20.100Z,2.38
2023-09-06T10:58:27.694Z,1.52
2023-09-06T11:03:33.106Z,2.10
2023-09-06T11:08:35.134Z,1.65
2023-09-06T11:13:43.076Z,2.17
2023-09-06T11:18:49.347Z,1.90
2023-09-06T11:23:53.163Z,1.90
2023-09-06T11:29:05.877Z,1.80
2023-09-06T11:34:10.310Z,1.90
2023-09-06T11:39:19.787Z,2.28
2023-09-06T11:44:24.500Z,2.25
2023-09-06T11:49:27.216Z,2.03
2023-09-06T11:54:32.871Z,2.27
2023-09-06T11:59:34.464Z,2.30
2023-09-06T12:04:36.452Z,2.15
2023-09-06T12:09:38.016Z,1.98
2023-09-06T12:14:43.724Z,1.88
2023-09-06T12:19:45.756Z,2.35
2023-09-06T12:24:48.745Z,2.08
2023-09-06T12:29:50.421Z,2.47
2023-09-06T12:34:53.635Z,2.08
2023-09-06T12:44:57.857Z,2.15
2023-09-06T12:50:01.049Z,2.78
2023-09-06T12:55:05.883Z,2.55
2023-09-06T13:00:14.230Z,2.35
2023-09-06T13:05:21.468Z,2.60
2023-09-06T13:10:25.890Z,2.40
2023-09-06T13:15:27.563Z,2.35
2023-09-06T13:20:29.277Z,2.83
2023-09-06T13:25:31.151Z,2.50
2023-09-06T13:30:32.902Z,3.08
2023-09-06T13:35:34.708Z,2.45
2023-09-06T13:40:36.390Z,2.00
2023-09-06T13:45:40.708Z,2.08
2023-09-06T13:50:45.514Z,1.85
2023-09-06T13:55:47.080Z,2.00
2023-09-06T14:00:56.102Z,2.03
2023-09-06T14:05:57.798Z,2.30
2023-09-06T14:10:59.417Z,1.77
2023-09-06T14:16:04.586Z,1.55
2023-09-06T14:21:06.294Z,2.00
2023-09-06T14:26:07.877Z,2.55
2023-09-06T14:31:13.260Z,2.30
2023-09-06T14:36:14.889Z,2.50
2023-09-06T14:41:16.656Z,2.40
2023-09-06T14:46:18.922Z,2.10
2023-09-06T14:51:20.594Z,2.17
2023-09-06T14:56:22.226Z,2.20
2023-09-06T15:01:23.921Z,2.15
2023-09-06T15:06:25.446Z,2.10
2023-09-06T15:11:27.183Z,1.77
2023-09-06T15:16:28.929Z,2.33
2023-09-06T15:21:30.507Z,2.05
2023-09-06T15:26:32.099Z,1.90
2023-09-06T15:31:36.439Z,1.70
2023-09-06T15:36:38.261Z,2.10
2023-09-06T15:41:39.954Z,2.00
2023-09-06T15:46:41.599Z,1.80
2023-09-06T15:51:43.255Z,2.33
2023-09-06T15:56:45.026Z,2.05
2023-09-06T16:01:47.409Z,2.28
2023-09-06T16:06:49.099Z,1.83
2023-09-06T16:11:55.960Z,1.85
2023-09-06T16:16:58.321Z,2.25
2023-09-06T16:22:00.103Z,1.98
2023-09-06T16:27:01.676Z,1.95
2023-09-06T16:32:06.391Z,1.80
2023-09-06T16:37:08.038Z,2.42
2023-09-06T16:42:09.718Z,1.67
2023-09-06T16:47:11.365Z,2.28
2023-09-06T16:52:13.278Z,2.30
2023-09-06T16:57:17.512Z,1.67
2023-09-06T17:07:23.036Z,1.47
2023-09-06T17:12:24.596Z,2.13
2023-09-06T17:17:26.224Z,1.70
2023-09-06T17:22:27.883Z,2.60
2023-09-06T17:27:31.205Z,1.75
2023-09-06T17:32:32.869Z,2.13
2023-09-06T17:37:36.146Z,1.95
2023-09-06T17:42:41.794Z,2.20
2023-09-06T17:47:43.479Z,1.85
2023-09-06T17:52:48.262Z,2.10
2023-09-06T17:57:49.862Z,2.22
2023-09-06T18:02:53.846Z,1.92
2023-09-06T18:07:55.541Z,2.42
2023-09-06T18:13:00.127Z,1.70
2023-09-06T18:23:04.608Z,2.15
2023-09-06T18:28:10.101Z,3.28
2023-09-06T18:33:11.695Z,2.38
2023-09-06T18:38:15.532Z,2.67
2023-09-06T18:43:18.625Z,3.40
2023-09-06T18:48:23.892Z,2.33
2023-09-06T18:53:28.319Z,2.55
2023-09-06T18:58:30.790Z,3.03
2023-09-06T19:03:36.433Z,2.45
2023-09-06T19:08:44.033Z,2.90
2023-09-06T19:13:48.309Z,2.75
2023-09-06T19:18:50.606Z,2.27
2023-09-06T19:23:52.889Z,2.47
2023-09-06T19:28:54.649Z,2.25
2023-09-06T19:33:57.333Z,2.42
2023-09-06T19:38:59.011Z,2.35
2023-09-06T19:44:00.680Z,2.13
2023-09-06T19:49:07.188Z,2.13
2023-09-06T19:54:09.773Z,2.47
2023-09-06T19:59:11.754Z,2.78
2023-09-06T20:04:13.674Z,2.47
2023-09-06T20:09:16.468Z,2.90
2023-09-06T20:14:19.552Z,3.00
2023-09-06T20:19:21.603Z,3.63
2023-09-06T20:24:23.426Z,3.05
2023-09-06T20:29:35.649Z,2.90
2023-09-06T20:34:37.575Z,3.05
2023-09-06T20:39:40.249Z,2.45
2023-09-06T20:44:41.978Z,3.10
2023-09-06T20:49:44.838Z,2.75
2023-09-06T20:54:46.584Z,3.05
2023-09-06T20:59:52.149Z,2.88
2023-09-06T21:09:59.313Z,3.13
2023-09-06T21:15:03.330Z,3.00
2023-09-06T21:20:08.757Z,2.90
2023-09-06T21:25:13.236Z,2.75
2023-09-06T21:30:14.944Z,3.97
2023-09-06T21:35:17.033Z,3.38
2023-09-06T21:40:19.743Z,3.25
2023-09-06T21:45:22.682Z,3.67
2023-09-06T21:50:25.748Z,3.33
2023-09-06T21:55:28.774Z,3.50
2023-09-06T22:00:31.383Z,3.58
2023-09-06T22:05:33.562Z,3.10
2023-09-06T22:10:37.168Z,3.20
2023-09-06T22:15:40.142Z,3.28
2023-09-06T22:20:46.195Z,3.60
2023-09-06T22:26:02.416Z,2.78
2023-09-06T22:31:04.280Z,2.95
2023-09-06T22:36:06.174Z,2.97
2023-09-06T22:41:07.843Z,3.38
2023-09-06T22:46:09.788Z,2.95
2023-09-06T22:51:14.041Z,3.15
2023-09-06T22:56:15.668Z,3.35
2023-09-06T23:01:17.308Z,2.90
2023-09-06T23:06:19.509Z,3.20
2023-09-06T23:11:21.125Z,3.15
2023-09-06T23:16:23.436Z,3.03
2023-09-06T23:21:39.091Z,3.70
2023-09-06T23:26:43.299Z,2.65
2023-09-06T23:31:54.645Z,3.95
2023-09-06T23:36:58.138Z,3.10
2023-09-06T23:42:11.020Z,2.80
2023-09-06T23:47:14.554Z,3.20
2023-09-06T23:52:16.367Z,3.05
2023-09-06T23:57:20.848Z,3.25
